Faneromeni — SVKG — position and weather

sailwx.info

Track history (hours):
 
Tides and Currents Weather Stations Pressure Air Temp Water Temp Dewpoint Dewpoint Depression Visibility Wind Speed Wind Dir Waves Ship Positions

Faneromeni

Last reported at 2014-Oct-18 21:33 UTC. Time now 2014-Oct-31 21:39 UTC.
Position N 37°51' E 024°35'.
Warning: this ship's position is 13 days out of date.

Length 230 m; draft 13.1 m.

Type: Cargo ship. MMSI: 240576000.

Date/timePositionNaut miles runAvg speedWind from/ knotsBaromVisibWave heightAir tempDewpointWater temp
2014-Oct-18 21:33N 37°51' E 024°35'1110.6
2014-Oct-18 20:33N 37°42' E 024°30'1010.2
2014-Oct-18 19:33N 37°32' E 024°24'1110.6
2014-Oct-18 18:33N 37°24' E 024°17'1111.3
2014-Oct-18 17:33N 37°14' E 024°09'1211.7
2014-Oct-18 16:33N 37°05' E 024°00'1211.5
2014-Oct-18 15:33N 36°55' E 023°52'1111.2
2014-Oct-18 14:33N 36°46' E 023°44'1211.8
2014-Oct-18 13:33N 36°36' E 023°36'1712.1
2014-Oct-18 12:07N 36°22' E 023°24'1911.8
2014-Oct-18 10:32N 36°07' E 023°10'38212.3
2014-Oct-17 03:21N 36°24' E 015°16'1012.4
2014-Oct-17 02:33N 36°25' E 015°04'1312.8
2014-Oct-17 01:33N 36°26' E 014°48'1312.9
2014-Oct-17 00:33N 36°27' E 014°32'1312.6
2014-Oct-16 23:33N 36°31' E 014°17'1212.5
2014-Oct-16 22:33N 36°34' E 014°03'1212.4
2014-Oct-16 21:33N 36°38' E 013°48'1212.1
2014-Oct-16 20:33N 36°42' E 013°33'1211.9
2014-Oct-16 19:33N 36°45' E 013°19'1211.6
2014-Oct-16 18:33N 36°48' E 013°05'1211.8
2014-Oct-16 17:33N 36°52' E 012°51'1212.1
2014-Oct-16 16:33N 36°55' E 012°37'1212.0
2014-Oct-16 15:33N 36°58' E 012°22'  
2014-Oct-13 17:33N 36°00' W 005°16'  
2014-Oct-10 05:31N 38°39' W 024°07'1111.7
2014-Oct-10 04:33N 38°41' W 024°21'1211.7
2014-Oct-10 03:31N 38°43' W 024°37'1111.6
2014-Oct-10 02:34N 38°44' W 024°51'1211.7
2014-Oct-10 01:33N 38°45' W 025°06'1211.7
2014-Oct-10 00:33N 38°47' W 025°20'1212.0
2014-Oct-09 23:33N 38°47' W 025°36'1211.7
2014-Oct-09 22:33N 38°48' W 025°51'1111.3
2014-Oct-09 21:34N 38°49' W 026°05'1111.3
2014-Oct-09 20:33N 38°50' W 026°20'1211.9
2014-Oct-09 19:33N 38°51' W 026°35'1212.1
2014-Oct-09 18:33N 38°52' W 026°50'2611.6
2014-Oct-09 16:21N 38°54' W 027°23'911.4
2014-Oct-09 15:34N 38°55' W 027°35'1211.6
2014-Oct-09 14:33N 38°56' W 027°50'1211.8
2014-Oct-09 13:33N 38°57' W 028°05'1111.3
2014-Oct-09 12:33N 38°58' W 028°19'1111.2
2014-Oct-09 11:33N 38°58' W 028°33'1111.2
2014-Oct-09 10:33N 38°59' W 028°48'1111.1
2014-Oct-09 09:33N 38°59' W 029°02'1110.8
2014-Oct-09 08:33N 38°58' W 029°16'1110.6
2014-Oct-09 07:33N 38°58' W 029°30'1010.4
2014-Oct-09 06:33N 38°58' W 029°43'1110.5
2014-Oct-09 05:33N 38°57' W 029°56'1110.5
2014-Oct-09 04:33N 38°57' W 030°10'1110.9
2014-Oct-09 03:33N 38°57' W 030°24'1111.1
2014-Oct-09 02:33N 38°57' W 030°39'1111.2
2014-Oct-09 01:33N 38°57' W 030°53'1111.3
2014-Oct-09 00:33N 38°58' W 031°07'1211.6
2014-Oct-08 23:33N 38°58' W 031°22'1211.6
2014-Oct-08 22:32N 38°58' W 031°37'1111.2
2014-Oct-08 21:33N 38°58' W 031°51'  
Track history (hours):
 
Tides and Currents Weather Stations Pressure Air Temp Water Temp Dewpoint Dewpoint Depression Visibility Wind Speed Wind Dir Waves Ship Positions

Faneromeni

Last reported at 2014-Oct-18 21:33 UTC. Time now 2014-Oct-31 21:39 UTC.
Position N 37°51' E 024°35'.
Warning: this ship's position is 13 days out of date.

Length 230 m; draft 13.1 m.

Type: Cargo ship. MMSI: 240576000.

Date/timePositionNaut miles runAvg speedWind from/ knotsBaromVisibWave heightAir tempDewpointWater temp
2014-Oct-18 21:33N 37°51' E 024°35'1110.6
2014-Oct-18 20:33N 37°42' E 024°30'1010.2
2014-Oct-18 19:33N 37°32' E 024°24'1110.6
2014-Oct-18 18:33N 37°24' E 024°17'1111.3
2014-Oct-18 17:33N 37°14' E 024°09'1211.7
2014-Oct-18 16:33N 37°05' E 024°00'1211.5
2014-Oct-18 15:33N 36°55' E 023°52'1111.2
2014-Oct-18 14:33N 36°46' E 023°44'1211.8
2014-Oct-18 13:33N 36°36' E 023°36'1712.1
2014-Oct-18 12:07N 36°22' E 023°24'1911.8
2014-Oct-18 10:32N 36°07' E 023°10'38212.3
2014-Oct-17 03:21N 36°24' E 015°16'1012.4
2014-Oct-17 02:33N 36°25' E 015°04'1312.8
2014-Oct-17 01:33N 36°26' E 014°48'1312.9
2014-Oct-17 00:33N 36°27' E 014°32'1312.6
2014-Oct-16 23:33N 36°31' E 014°17'1212.5
2014-Oct-16 22:33N 36°34' E 014°03'1212.4
2014-Oct-16 21:33N 36°38' E 013°48'1212.1
2014-Oct-16 20:33N 36°42' E 013°33'1211.9
2014-Oct-16 19:33N 36°45' E 013°19'1211.6
2014-Oct-16 18:33N 36°48' E 013°05'1211.8
2014-Oct-16 17:33N 36°52' E 012°51'1212.1
2014-Oct-16 16:33N 36°55' E 012°37'1212.0
2014-Oct-16 15:33N 36°58' E 012°22'  
2014-Oct-13 17:33N 36°00' W 005°16'  
2014-Oct-10 05:31N 38°39' W 024°07'1111.7
2014-Oct-10 04:33N 38°41' W 024°21'1211.7
2014-Oct-10 03:31N 38°43' W 024°37'1111.6
2014-Oct-10 02:34N 38°44' W 024°51'1211.7
2014-Oct-10 01:33N 38°45' W 025°06'1211.7
2014-Oct-10 00:33N 38°47' W 025°20'1212.0
2014-Oct-09 23:33N 38°47' W 025°36'1211.7
2014-Oct-09 22:33N 38°48' W 025°51'1111.3
2014-Oct-09 21:34N 38°49' W 026°05'1111.3
2014-Oct-09 20:33N 38°50' W 026°20'1211.9
2014-Oct-09 19:33N 38°51' W 026°35'1212.1
2014-Oct-09 18:33N 38°52' W 026°50'2611.6
2014-Oct-09 16:21N 38°54' W 027°23'911.4
2014-Oct-09 15:34N 38°55' W 027°35'1211.6
2014-Oct-09 14:33N 38°56' W 027°50'1211.8
2014-Oct-09 13:33N 38°57' W 028°05'1111.3
2014-Oct-09 12:33N 38°58' W 028°19'1111.2
2014-Oct-09 11:33N 38°58' W 028°33'1111.2
2014-Oct-09 10:33N 38°59' W 028°48'1111.1
2014-Oct-09 09:33N 38°59' W 029°02'1110.8
2014-Oct-09 08:33N 38°58' W 029°16'1110.6
2014-Oct-09 07:33N 38°58' W 029°30'1010.4
2014-Oct-09 06:33N 38°58' W 029°43'1110.5
2014-Oct-09 05:33N 38°57' W 029°56'1110.5
2014-Oct-09 04:33N 38°57' W 030°10'1110.9
2014-Oct-09 03:33N 38°57' W 030°24'1111.1
2014-Oct-09 02:33N 38°57' W 030°39'1111.2
2014-Oct-09 01:33N 38°57' W 030°53'1111.3
2014-Oct-09 00:33N 38°58' W 031°07'1211.6
2014-Oct-08 23:33N 38°58' W 031°22'1211.6
2014-Oct-08 22:32N 38°58' W 031°37'1111.2
2014-Oct-08 21:33N 38°58' W 031°51'  

Dump ship's entire track history